sensor_id;sensor_type;location;lat;lon;timestamp;pressure;altitude;pressure_sealevel;temperature;humidity
43838;BME280;65998;46.256;7.534;2023-07-28T00:02:08;86849.16;;;18.78;62.70
43838;BME280;65998;46.256;7.534;2023-07-28T00:04:35;86849.97;;;18.92;60.84
43838;BME280;65998;46.256;7.534;2023-07-28T00:07:01;86857.50;;;18.95;61.36
43838;BME280;65998;46.256;7.534;2023-07-28T00:09:27;86848.72;;;18.89;62.46
43838;BME280;65998;46.256;7.534;2023-07-28T00:11:53;86851.09;;;18.82;62.48
43838;BME280;65998;46.256;7.534;2023-07-28T00:14:19;86849.47;;;18.87;62.05
43838;BME280;65998;46.256;7.534;2023-07-28T00:16:44;86840.78;;;18.95;62.11
43838;BME280;65998;46.256;7.534;2023-07-28T00:19:11;86842.31;;;18.92;62.64
43838;BME280;65998;46.256;7.534;2023-07-28T00:21:37;86841.53;;;18.94;62.85
43838;BME280;65998;46.256;7.534;2023-07-28T00:24:03;86837.66;;;18.70;63.64
43838;BME280;65998;46.256;7.534;2023-07-28T00:26:28;86841.66;;;18.56;62.97
43838;BME280;65998;46.256;7.534;2023-07-28T00:28:54;86843.00;;;18.57;62.82
43838;BME280;65998;46.256;7.534;2023-07-28T00:31:20;86844.44;;;18.56;61.11
43838;BME280;65998;46.256;7.534;2023-07-28T00:33:46;86851.28;;;18.59;62.47
43838;BME280;65998;46.256;7.534;2023-07-28T00:36:12;86854.44;;;18.68;62.44
43838;BME280;65998;46.256;7.534;2023-07-28T00:38:38;86847.97;;;18.73;62.10
43838;BME280;65998;46.256;7.534;2023-07-28T00:41:03;86845.69;;;18.78;62.23
43838;BME280;65998;46.256;7.534;2023-07-28T00:43:29;86837.16;;;18.82;62.00
43838;BME280;65998;46.256;7.534;2023-07-28T00:45:55;86851.00;;;18.84;61.69
43838;BME280;65998;46.256;7.534;2023-07-28T00:48:21;86847.13;;;18.94;62.02
43838;BME280;65998;46.256;7.534;2023-07-28T00:50:48;86846.34;;;18.95;62.66
43838;BME280;65998;46.256;7.534;2023-07-28T00:53:15;86844.75;;;18.84;63.45
43838;BME280;65998;46.256;7.534;2023-07-28T00:55:41;86846.19;;;18.83;63.34
43838;BME280;65998;46.256;7.534;2023-07-28T00:58:08;86852.59;;;18.79;61.91
43838;BME280;65998;46.256;7.534;2023-07-28T01:00:34;86843.78;;;18.56;61.67
43838;BME280;65998;46.256;7.534;2023-07-28T01:03:01;86844.13;;;18.64;62.63
43838;BME280;65998;46.256;7.534;2023-07-28T01:06:35;86849.06;;;18.80;61.47
43838;BME280;65998;46.256;7.534;2023-07-28T01:08:49;86853.25;;;18.63;61.17
43838;BME280;65998;46.256;7.534;2023-07-28T01:11:19;86853.88;;;18.46;62.14
43838;BME280;65998;46.256;7.534;2023-07-28T01:13:45;86862.34;;;18.61;60.25
43838;BME280;65998;46.256;7.534;2023-07-28T01:16:11;86868.34;;;18.32;62.63
43838;BME280;65998;46.256;7.534;2023-07-28T01:18:37;86859.84;;;18.36;61.88
43838;BME280;65998;46.256;7.534;2023-07-28T01:21:06;86855.94;;;18.65;61.96
43838;BME280;65998;46.256;7.534;2023-07-28T01:26:36;86862.03;;;18.69;62.15
43838;BME280;65998;46.256;7.534;2023-07-28T01:29:03;86867.44;;;18.73;63.29
43838;BME280;65998;46.256;7.534;2023-07-28T01:31:30;86877.75;;;18.58;61.52
43838;BME280;65998;46.256;7.534;2023-07-28T01:33:56;86874.88;;;18.60;62.21
43838;BME280;65998;46.256;7.534;2023-07-28T01:36:22;86872.44;;;18.52;61.24
43838;BME280;65998;46.256;7.534;2023-07-28T01:38:48;86870.69;;;18.61;62.10
43838;BME280;65998;46.256;7.534;2023-07-28T01:41:14;86876.28;;;18.42;63.75
43838;BME280;65998;46.256;7.534;2023-07-28T01:43:40;86873.91;;;18.32;63.95
43838;BME280;65998;46.256;7.534;2023-07-28T01:46:06;86881.75;;;18.28;63.53
43838;BME280;65998;46.256;7.534;2023-07-28T01:48:32;86881.38;;;18.19;63.28
43838;BME280;65998;46.256;7.534;2023-07-28T01:50:57;86898.06;;;18.19;63.67
43838;BME280;65998;46.256;7.534;2023-07-28T01:53:23;86892.28;;;18.25;62.84
43838;BME280;65998;46.256;7.534;2023-07-28T01:55:49;86883.69;;;18.31;63.43
43838;BME280;65998;46.256;7.534;2023-07-28T01:58:15;86880.75;;;18.35;63.63
43838;BME280;65998;46.256;7.534;2023-07-28T02:00:40;86875.63;;;18.42;64.00
43838;BME280;65998;46.256;7.534;2023-07-28T02:03:06;86873.69;;;18.55;64.33
43838;BME280;65998;46.256;7.534;2023-07-28T02:05:32;86865.59;;;18.49;64.39
43838;BME280;65998;46.256;7.534;2023-07-28T02:07:58;86871.31;;;18.45;64.23
43838;BME280;65998;46.256;7.534;2023-07-28T02:10:26;86865.13;;;18.61;63.55
43838;BME280;65998;46.256;7.534;2023-07-28T02:12:52;86865.94;;;18.41;65.18
43838;BME280;65998;46.256;7.534;2023-07-28T02:15:18;86857.50;;;18.43;65.56
43838;BME280;65998;46.256;7.534;2023-07-28T02:17:44;86857.06;;;18.36;64.19
43838;BME280;65998;46.256;7.534;2023-07-28T02:20:10;86856.47;;;18.34;64.11
43838;BME280;65998;46.256;7.534;2023-07-28T02:22:36;86858.69;;;18.48;64.84
43838;BME280;65998;46.256;7.534;2023-07-28T02:25:02;86863.19;;;18.22;64.33
43838;BME280;65998;46.256;7.534;2023-07-28T02:27:28;86856.44;;;18.17;65.55
43838;BME280;65998;46.256;7.534;2023-07-28T02:29:54;86856.84;;;18.07;64.84
43838;BME280;65998;46.256;7.534;2023-07-28T02:32:20;86847.50;;;18.14;66.41
43838;BME280;65998;46.256;7.534;2023-07-28T02:34:46;86852.38;;;18.14;64.40
43838;BME280;65998;46.256;7.534;2023-07-28T02:37:12;86852.31;;;18.16;63.42
43838;BME280;65998;46.256;7.534;2023-07-28T02:39:37;86847.38;;;18.35;62.72
43838;BME280;65998;46.256;7.534;2023-07-28T02:42:03;86857.34;;;18.47;63.74
43838;BME280;65998;46.256;7.534;2023-07-28T02:44:29;86851.94;;;18.43;63.66
43838;BME280;65998;46.256;7.534;2023-07-28T02:46:55;86851.00;;;18.48;64.74
43838;BME280;65998;46.256;7.534;2023-07-28T02:49:21;86854.13;;;18.40;65.39
43838;BME280;65998;46.256;7.534;2023-07-28T02:51:47;86863.38;;;18.35;65.97
43838;BME280;65998;46.256;7.534;2023-07-28T02:54:12;86858.31;;;18.23;64.57
43838;BME280;65998;46.256;7.534;2023-07-28T02:56:38;86855.56;;;18.39;65.36
43838;BME280;65998;46.256;7.534;2023-07-28T02:59:04;86857.00;;;18.55;64.69
43838;BME280;65998;46.256;7.534;2023-07-28T03:01:31;86857.00;;;18.38;65.22
43838;BME280;65998;46.256;7.534;2023-07-28T03:03:56;86855.78;;;18.33;64.20
43838;BME280;65998;46.256;7.534;2023-07-28T03:06:22;86861.94;;;18.36;63.35
43838;BME280;65998;46.256;7.534;2023-07-28T03:08:48;86866.69;;;18.39;62.88
43838;BME280;65998;46.256;7.534;2023-07-28T03:11:14;86866.53;;;18.43;64.29
43838;BME280;65998;46.256;7.534;2023-07-28T03:13:39;86865.69;;;18.47;65.78
43838;BME280;65998;46.256;7.534;2023-07-28T03:16:05;86864.81;;;18.34;64.53
43838;BME280;65998;46.256;7.534;2023-07-28T03:18:31;86864.91;;;18.32;65.64
43838;BME280;65998;46.256;7.534;2023-07-28T03:20:57;86861.56;;;18.46;64.84
43838;BME280;65998;46.256;7.534;2023-07-28T03:23:22;86861.38;;;18.50;65.32
43838;BME280;65998;46.256;7.534;2023-07-28T03:25:48;86855.75;;;18.52;64.50
43838;BME280;65998;46.256;7.534;2023-07-28T03:28:14;86853.13;;;18.48;65.19
43838;BME280;65998;46.256;7.534;2023-07-28T03:30:40;86859.94;;;18.34;65.88
43838;BME280;65998;46.256;7.534;2023-07-28T03:33:05;86846.59;;;18.20;65.45
43838;BME280;65998;46.256;7.534;2023-07-28T03:35:31;86851.47;;;18.19;65.90
43838;BME280;65998;46.256;7.534;2023-07-28T03:37:57;86841.63;;;18.23;66.45
43838;BME280;65998;46.256;7.534;2023-07-28T03:40:23;86841.63;;;18.23;64.55
43838;BME280;65998;46.256;7.534;2023-07-28T03:42:49;86833.34;;;18.21;65.44
43838;BME280;65998;46.256;7.534;2023-07-28T03:45:15;86839.50;;;18.23;65.12
43838;BME280;65998;46.256;7.534;2023-07-28T03:47:42;86837.25;;;18.28;65.83
43838;BME280;65998;46.256;7.534;2023-07-28T03:50:08;86829.97;;;18.18;66.13
43838;BME280;65998;46.256;7.534;2023-07-28T03:52:33;86830.97;;;18.10;66.98
43838;BME280;65998;46.256;7.534;2023-07-28T03:54:59;86824.16;;;18.07;66.44
43838;BME280;65998;46.256;7.534;2023-07-28T03:57:25;86820.00;;;18.06;66.59
43838;BME280;65998;46.256;7.534;2023-07-28T03:59:51;86825.72;;;18.02;67.15
43838;BME280;65998;46.256;7.534;2023-07-28T04:02:17;86830.47;;;18.06;66.22
43838;BME280;65998;46.256;7.534;2023-07-28T04:04:42;86823.47;;;18.07;66.66
43838;BME280;65998;46.256;7.534;2023-07-28T04:07:08;86821.28;;;18.09;66.50
43838;BME280;65998;46.256;7.534;2023-07-28T04:09:34;86819.78;;;18.12;66.75
43838;BME280;65998;46.256;7.534;2023-07-28T04:12:00;86823.81;;;18.15;65.99
43838;BME280;65998;46.256;7.534;2023-07-28T04:14:26;86826.34;;;18.22;66.01
43838;BME280;65998;46.256;7.534;2023-07-28T04:16:52;86826.28;;;18.24;65.63
43838;BME280;65998;46.256;7.534;2023-07-28T04:19:18;86827.47;;;18.29;66.18
43838;BME280;65998;46.256;7.534;2023-07-28T04:21:43;86831.16;;;18.23;67.10
43838;BME280;65998;46.256;7.534;2023-07-28T04:24:09;86824.78;;;18.27;66.18
43838;BME280;65998;46.256;7.534;2023-07-28T04:26:35;86828.72;;;18.15;66.23
43838;BME280;65998;46.256;7.534;2023-07-28T04:29:01;86829.94;;;18.01;62.53
43838;BME280;65998;46.256;7.534;2023-07-28T04:31:27;86829.19;;;18.03;67.77
43838;BME280;65998;46.256;7.534;2023-07-28T04:33:53;86831.13;;;18.06;69.08
43838;BME280;65998;46.256;7.534;2023-07-28T04:36:19;86826.09;;;18.11;69.02
43838;BME280;65998;46.256;7.534;2023-07-28T04:38:45;86835.19;;;18.09;68.33
43838;BME280;65998;46.256;7.534;2023-07-28T04:41:11;86840.66;;;18.11;68.19
43838;BME280;65998;46.256;7.534;2023-07-28T04:43:37;86849.84;;;18.08;70.00
43838;BME280;65998;46.256;7.534;2023-07-28T04:46:03;86848.25;;;18.13;69.42
43838;BME280;65998;46.256;7.534;2023-07-28T04:48:29;86853.06;;;18.14;70.23
43838;BME280;65998;46.256;7.534;2023-07-28T04:50:54;86857.78;;;18.18;69.23
43838;BME280;65998;46.256;7.534;2023-07-28T04:53:20;86856.34;;;18.19;70.62
43838;BME280;65998;46.256;7.534;2023-07-28T04:55:46;86861.16;;;18.21;70.72
43838;BME280;65998;46.256;7.534;2023-07-28T04:58:12;86861.69;;;18.25;69.47
43838;BME280;65998;46.256;7.534;2023-07-28T05:00:38;86858.22;;;18.25;70.17
43838;BME280;65998;46.256;7.534;2023-07-28T05:03:04;86867.31;;;18.23;70.99
43838;BME280;65998;46.256;7.534;2023-07-28T05:05:30;86862.59;;;18.19;70.58
43838;BME280;65998;46.256;7.534;2023-07-28T05:07:56;86866.88;;;18.16;70.17
43838;BME280;65998;46.256;7.534;2023-07-28T05:10:22;86883.13;;;18.10;67.61
43838;BME280;65998;46.256;7.534;2023-07-28T05:12:48;86885.63;;;17.99;68.01
43838;BME280;65998;46.256;7.534;2023-07-28T05:15:15;86873.75;;;18.01;68.08
43838;BME280;65998;46.256;7.534;2023-07-28T05:17:41;86874.53;;;17.80;66.54
43838;BME280;65998;46.256;7.534;2023-07-28T05:20:07;86875.84;;;18.00;71.75
43838;BME280;65998;46.256;7.534;2023-07-28T05:22:33;86873.91;;;17.97;70.73
43838;BME280;65998;46.256;7.534;2023-07-28T05:24:59;86883.22;;;18.08;70.59
43838;BME280;65998;46.256;7.534;2023-07-28T05:27:25;86884.16;;;18.19;68.70
43838;BME280;65998;46.256;7.534;2023-07-28T05:29:51;86869.28;;;18.27;68.17
43838;BME280;65998;46.256;7.534;2023-07-28T05:32:17;86874.72;;;18.12;69.78
43838;BME280;65998;46.256;7.534;2023-07-28T05:34:43;86874.56;;;18.16;70.57
43838;BME280;65998;46.256;7.534;2023-07-28T05:37:10;86888.22;;;18.22;70.97
43838;BME280;65998;46.256;7.534;2023-07-28T05:39:36;86882.22;;;18.15;70.21
43838;BME280;65998;46.256;7.534;2023-07-28T05:42:02;86886.72;;;18.25;71.00
43838;BME280;65998;46.256;7.534;2023-07-28T05:44:28;86892.28;;;18.25;70.97
43838;BME280;65998;46.256;7.534;2023-07-28T05:46:55;86891.31;;;18.14;70.58
43838;BME280;65998;46.256;7.534;2023-07-28T05:49:21;86886.63;;;18.27;73.11
43838;BME280;65998;46.256;7.534;2023-07-28T05:51:47;86891.19;;;18.35;72.81
43838;BME280;65998;46.256;7.534;2023-07-28T05:54:13;86885.84;;;18.47;72.80
43838;BME280;65998;46.256;7.534;2023-07-28T05:56:39;86881.97;;;18.57;70.24
43838;BME280;65998;46.256;7.534;2023-07-28T05:59:05;86887.81;;;18.68;67.47
43838;BME280;65998;46.256;7.534;2023-07-28T06:01:31;86884.44;;;18.65;68.62
43838;BME280;65998;46.256;7.534;2023-07-28T06:03:57;86882.56;;;18.60;67.81
43838;BME280;65998;46.256;7.534;2023-07-28T06:06:23;86884.06;;;18.40;66.42
43838;BME280;65998;46.256;7.534;2023-07-28T06:08:49;86885.34;;;18.60;68.55
43838;BME280;65998;46.256;7.534;2023-07-28T06:11:15;86890.06;;;18.82;69.56
43838;BME280;65998;46.256;7.534;2023-07-28T06:13:41;86889.31;;;18.84;70.24
43838;BME280;65998;46.256;7.534;2023-07-28T06:16:08;86891.25;;;18.87;68.00
43838;BME280;65998;46.256;7.534;2023-07-28T06:18:34;86888.38;;;18.89;69.90
43838;BME280;65998;46.256;7.534;2023-07-28T06:21:00;86893.09;;;18.93;69.72
43838;BME280;65998;46.256;7.534;2023-07-28T06:23:26;86891.84;;;18.90;65.96
43838;BME280;65998;46.256;7.534;2023-07-28T06:25:52;86891.16;;;19.06;66.53
43838;BME280;65998;46.256;7.534;2023-07-28T06:28:18;86895.88;;;19.09;68.85
43838;BME280;65998;46.256;7.534;2023-07-28T06:30:44;86897.81;;;19.13;67.87
43838;BME280;65998;46.256;7.534;2023-07-28T06:33:10;86894.38;;;19.12;64.23
43838;BME280;65998;46.256;7.534;2023-07-28T06:35:36;86903.56;;;19.26;66.84
43838;BME280;65998;46.256;7.534;2023-07-28T06:38:02;86903.38;;;19.30;64.24
43838;BME280;65998;46.256;7.534;2023-07-28T06:40:29;86903.88;;;19.34;66.59
43838;BME280;65998;46.256;7.534;2023-07-28T06:42:55;86903.53;;;19.42;65.40
43838;BME280;65998;46.256;7.534;2023-07-28T06:45:21;86896.78;;;19.54;64.23
43838;BME280;65998;46.256;7.534;2023-07-28T06:47:47;86905.25;;;19.52;65.01
43838;BME280;65998;46.256;7.534;2023-07-28T06:50:15;86903.09;;;19.69;63.26
43838;BME280;65998;46.256;7.534;2023-07-28T06:52:41;86908.44;;;19.59;61.98
43838;BME280;65998;46.256;7.534;2023-07-28T06:55:07;86910.09;;;19.68;62.30
43838;BME280;65998;46.256;7.534;2023-07-28T06:57:33;86914.25;;;19.69;60.60
43838;BME280;65998;46.256;7.534;2023-07-28T06:59:59;86909.44;;;19.68;60.76
43838;BME280;65998;46.256;7.534;2023-07-28T07:02:25;86906.38;;;19.74;62.90
43838;BME280;65998;46.256;7.534;2023-07-28T07:04:52;86907.31;;;19.85;59.71
43838;BME280;65998;46.256;7.534;2023-07-28T07:07:17;86904.94;;;19.75;58.23
43838;BME280;65998;46.256;7.534;2023-07-28T07:09:44;86904.94;;;19.75;57.16
43838;BME280;65998;46.256;7.534;2023-07-28T07:12:10;86904.16;;;19.76;56.97
43838;BME280;65998;46.256;7.534;2023-07-28T07:14:36;86914.19;;;20.03;58.31
43838;BME280;65998;46.256;7.534;2023-07-28T07:17:02;86912.56;;;20.08;57.06
43838;BME280;65998;46.256;7.534;2023-07-28T07:19:29;86909.38;;;19.53;58.79
43838;BME280;65998;46.256;7.534;2023-07-28T07:21:55;86916.69;;;20.09;59.46
43838;BME280;65998;46.256;7.534;2023-07-28T07:24:21;86903.81;;;20.16;60.15
43838;BME280;65998;46.256;7.534;2023-07-28T07:26:47;86914.41;;;20.28;59.70
43838;BME280;65998;46.256;7.534;2023-07-28T07:29:14;86907.50;;;20.27;58.59
43838;BME280;65998;46.256;7.534;2023-07-28T07:31:40;86908.72;;;20.16;58.95
43838;BME280;65998;46.256;7.534;2023-07-28T07:34:06;86910.81;;;20.47;61.22
43838;BME280;65998;46.256;7.534;2023-07-28T07:36:32;86918.25;;;20.67;60.24
43838;BME280;65998;46.256;7.534;2023-07-28T07:38:58;86922.97;;;20.85;58.75
43838;BME280;65998;46.256;7.534;2023-07-28T07:41:28;86924.41;;;20.99;57.44
43838;BME280;65998;46.256;7.534;2023-07-28T07:43:55;86913.03;;;20.73;58.53
43838;BME280;65998;46.256;7.534;2023-07-28T07:46:21;86920.75;;;20.73;57.69
43838;BME280;65998;46.256;7.534;2023-07-28T07:48:48;86916.97;;;20.64;58.20
43838;BME280;65998;46.256;7.534;2023-07-28T07:51:14;86908.50;;;20.66;58.31
43838;BME280;65998;46.256;7.534;2023-07-28T07:53:41;86895.94;;;20.21;59.80
43838;BME280;65998;46.256;7.534;2023-07-28T07:56:07;86905.03;;;20.51;60.01
43838;BME280;65998;46.256;7.534;2023-07-28T07:58:33;86913.41;;;20.51;58.87
43838;BME280;65998;46.256;7.534;2023-07-28T08:00:59;86912.38;;;20.58;58.78
43838;BME280;65998;46.256;7.534;2023-07-28T08:03:26;86912.34;;;20.44;58.42
43838;BME280;65998;46.256;7.534;2023-07-28T08:05:52;86914.19;;;20.79;59.26
43838;BME280;65998;46.256;7.534;2023-07-28T08:08:18;86909.09;;;20.98;60.72
43838;BME280;65998;46.256;7.534;2023-07-28T08:10:44;86905.16;;;21.08;58.61
43838;BME280;65998;46.256;7.534;2023-07-28T08:13:10;86911.59;;;21.04;58.45
43838;BME280;65998;46.256;7.534;2023-07-28T08:15:36;86914.09;;;21.10;59.22
43838;BME280;65998;46.256;7.534;2023-07-28T08:18:02;86923.16;;;20.96;58.73
43838;BME280;65998;46.256;7.534;2023-07-28T08:20:28;86925.66;;;21.17;60.03
43838;BME280;65998;46.256;7.534;2023-07-28T08:22:57;86928.91;;;21.36;59.40
43838;BME280;65998;46.256;7.534;2023-07-28T08:25:23;86934.88;;;21.85;57.97
43838;BME280;65998;46.256;7.534;2023-07-28T08:27:50;86927.78;;;23.19;54.97
43838;BME280;65998;46.256;7.534;2023-07-28T08:30:16;86928.03;;;24.12;50.75
43838;BME280;65998;46.256;7.534;2023-07-28T08:32:43;86934.59;;;24.32;50.39
43838;BME280;65998;46.256;7.534;2023-07-28T08:35:09;86933.69;;;24.36;50.88
43838;BME280;65998;46.256;7.534;2023-07-28T08:37:36;86934.28;;;23.28;52.30
43838;BME280;65998;46.256;7.534;2023-07-28T08:40:02;86944.31;;;22.72;54.42
43838;BME280;65998;46.256;7.534;2023-07-28T08:42:36;86949.59;;;22.25;57.36
43838;BME280;65998;46.256;7.534;2023-07-28T08:45:03;86946.47;;;21.77;60.00
43838;BME280;65998;46.256;7.534;2023-07-28T08:47:29;86953.59;;;21.31;61.20
43838;BME280;65998;46.256;7.534;2023-07-28T08:49:55;86947.91;;;21.04;61.95
43838;BME280;65998;46.256;7.534;2023-07-28T08:52:21;86949.75;;;20.95;62.12
43838;BME280;65998;46.256;7.534;2023-07-28T08:54:47;86950.31;;;20.68;62.72
43838;BME280;65998;46.256;7.534;2023-07-28T08:57:13;86950.00;;;20.74;64.29
43838;BME280;65998;46.256;7.534;2023-07-28T08:59:39;86951.28;;;20.92;64.63
43838;BME280;65998;46.256;7.534;2023-07-28T09:02:09;86949.47;;;21.30;64.75
43838;BME280;65998;46.256;7.534;2023-07-28T09:04:36;86952.34;;;21.28;66.24
43838;BME280;65998;46.256;7.534;2023-07-28T09:07:05;86958.31;;;21.92;63.16
43838;BME280;65998;46.256;7.534;2023-07-28T09:09:32;86948.03;;;22.28;61.78
43838;BME280;65998;46.256;7.534;2023-07-28T09:11:59;86938.78;;;22.45;60.66
43838;BME280;65998;46.256;7.534;2023-07-28T09:14:36;86937.69;;;22.65;60.55
43838;BME280;65998;46.256;7.534;2023-07-28T09:19:33;86933.88;;;22.58;63.54
43838;BME280;65998;46.256;7.534;2023-07-28T09:22:02;86937.13;;;22.62;62.97
43838;BME280;65998;46.256;7.534;2023-07-28T09:24:32;86939.78;;;22.92;61.57
43838;BME280;65998;46.256;7.534;2023-07-28T09:27:00;86927.38;;;22.61;59.39
43838;BME280;65998;46.256;7.534;2023-07-28T09:29:26;86931.50;;;22.50;61.56
43838;BME280;65998;46.256;7.534;2023-07-28T09:31:53;86928.28;;;22.71;61.71
43838;BME280;65998;46.256;7.534;2023-07-28T09:34:27;86927.13;;;23.06;58.52
43838;BME280;65998;46.256;7.534;2023-07-28T09:36:59;86922.69;;;22.58;57.51
43838;BME280;65998;46.256;7.534;2023-07-28T09:39:26;86933.31;;;22.68;60.14
43838;BME280;65998;46.256;7.534;2023-07-28T09:41:54;86927.81;;;22.53;60.79
43838;BME280;65998;46.256;7.534;2023-07-28T09:44:20;86932.47;;;22.32;59.24
43838;BME280;65998;46.256;7.534;2023-07-28T09:46:51;86928.56;;;22.26;59.38
43838;BME280;65998;46.256;7.534;2023-07-28T09:49:36;86932.03;;;22.27;60.02
43838;BME280;65998;46.256;7.534;2023-07-28T09:52:09;86924.22;;;22.42;60.48
43838;BME280;65998;46.256;7.534;2023-07-28T09:54:40;86931.47;;;22.24;59.76
43838;BME280;65998;46.256;7.534;2023-07-28T09:57:12;86929.53;;;22.21;62.78
43838;BME280;65998;46.256;7.534;2023-07-28T09:59:41;86925.56;;;22.43;62.86
43838;BME280;65998;46.256;7.534;2023-07-28T10:02:08;86935.53;;;22.40;62.42
43838;BME280;65998;46.256;7.534;2023-07-28T10:04:34;86932.63;;;22.42;60.01
43838;BME280;65998;46.256;7.534;2023-07-28T10:07:01;86935.47;;;22.15;61.81
43838;BME280;65998;46.256;7.534;2023-07-28T10:09:28;86942.91;;;22.33;64.11
43838;BME280;65998;46.256;7.534;2023-07-28T10:11:55;86937.06;;;22.24;59.97
43838;BME280;65998;46.256;7.534;2023-07-28T10:14:33;86924.81;;;22.70;59.59
43838;BME280;65998;46.256;7.534;2023-07-28T10:17:00;86918.19;;;22.63;59.32
43838;BME280;65998;46.256;7.534;2023-07-28T10:19:26;86917.31;;;22.67;60.65
43838;BME280;65998;46.256;7.534;2023-07-28T10:22:08;86919.72;;;23.13;59.63
43838;BME280;65998;46.256;7.534;2023-07-28T10:24:50;86921.72;;;23.27;55.44
43838;BME280;65998;46.256;7.534;2023-07-28T10:27:37;86928.53;;;23.43;59.53
43838;BME280;65998;46.256;7.534;2023-07-28T10:30:07;86922.38;;;23.40;57.95
43838;BME280;65998;46.256;7.534;2023-07-28T10:32:48;86922.38;;;23.40;58.66
43838;BME280;65998;46.256;7.534;2023-07-28T10:37:44;86926.38;;;23.69;61.28
43838;BME280;65998;46.256;7.534;2023-07-28T10:40:30;86931.09;;;23.60;58.73
43838;BME280;65998;46.256;7.534;2023-07-28T10:42:57;86918.88;;;23.52;60.88
43838;BME280;65998;46.256;7.534;2023-07-28T10:45:26;86920.31;;;23.51;61.72
43838;BME280;65998;46.256;7.534;2023-07-28T10:47:54;86920.69;;;23.33;62.13
43838;BME280;65998;46.256;7.534;2023-07-28T10:50:20;86914.09;;;23.13;60.80
43838;BME280;65998;46.256;7.534;2023-07-28T10:52:46;86925.88;;;23.03;60.31
43838;BME280;65998;46.256;7.534;2023-07-28T10:55:20;86927.22;;;23.29;61.09
43838;BME280;65998;46.256;7.534;2023-07-28T10:57:47;86926.00;;;23.01;61.06
43838;BME280;65998;46.256;7.534;2023-07-28T11:00:16;86923.31;;;23.11;61.51
43838;BME280;65998;46.256;7.534;2023-07-28T11:02:45;86928.69;;;23.03;61.23
43838;BME280;65998;46.256;7.534;2023-07-28T11:05:23;86929.66;;;23.35;62.66
43838;BME280;65998;46.256;7.534;2023-07-28T11:07:51;86928.22;;;23.36;61.85
43838;BME280;65998;46.256;7.534;2023-07-28T11:10:19;86924.72;;;23.36;60.00
43838;BME280;65998;46.256;7.534;2023-07-28T11:12:47;86925.84;;;23.41;60.41
43838;BME280;65998;46.256;7.534;2023-07-28T11:15:14;86925.50;;;23.47;61.13
43838;BME280;65998;46.256;7.534;2023-07-28T11:17:44;86925.81;;;23.53;61.19
43838;BME280;65998;46.256;7.534;2023-07-28T11:20:19;86921.31;;;23.71;60.77
43838;BME280;65998;46.256;7.534;2023-07-28T11:22:47;86924.59;;;23.50;62.31
43838;BME280;65998;46.256;7.534;2023-07-28T11:25:13;86920.47;;;23.37;60.13
43838;BME280;65998;46.256;7.534;2023-07-28T11:27:39;86914.50;;;23.43;60.45
43838;BME280;65998;46.256;7.534;2023-07-28T11:30:08;86916.97;;;23.62;60.32
43838;BME280;65998;46.256;7.534;2023-07-28T11:32:36;86922.13;;;23.44;59.84
43838;BME280;65998;46.256;7.534;2023-07-28T11:35:06;86911.06;;;23.17;59.70
43838;BME280;65998;46.256;7.534;2023-07-28T11:37:33;86906.47;;;23.24;62.99
43838;BME280;65998;46.256;7.534;2023-07-28T11:40:03;86905.00;;;23.25;61.13
43838;BME280;65998;46.256;7.534;2023-07-28T11:42:30;86896.72;;;23.10;63.00
43838;BME280;65998;46.256;7.534;2023-07-28T11:44:57;86891.34;;;23.06;59.62
43838;BME280;65998;46.256;7.534;2023-07-28T11:47:24;86899.53;;;22.85;59.81
43838;BME280;65998;46.256;7.534;2023-07-28T11:49:50;86902.75;;;22.64;59.85
43838;BME280;65998;46.256;7.534;2023-07-28T11:52:17;86905.78;;;22.73;60.11
43838;BME280;65998;46.256;7.534;2023-07-28T11:54:44;86909.00;;;22.65;62.57
43838;BME280;65998;46.256;7.534;2023-07-28T11:57:11;86908.44;;;22.62;63.43
43838;BME280;65998;46.256;7.534;2023-07-28T11:59:38;86915.41;;;22.63;64.14
43838;BME280;65998;46.256;7.534;2023-07-28T12:02:07;86921.78;;;22.61;66.43
43838;BME280;65998;46.256;7.534;2023-07-28T12:04:37;86914.31;;;22.83;66.83
43838;BME280;65998;46.256;7.534;2023-07-28T12:07:12;86914.78;;;23.01;66.59
43838;BME280;65998;46.256;7.534;2023-07-28T12:12:17;86914.44;;;22.81;63.94
43838;BME280;65998;46.256;7.534;2023-07-28T12:14:43;86914.72;;;22.75;63.54
43838;BME280;65998;46.256;7.534;2023-07-28T12:17:13;86919.50;;;22.91;62.24
43838;BME280;65998;46.256;7.534;2023-07-28T12:20:04;86914.84;;;22.73;62.06
43838;BME280;65998;46.256;7.534;2023-07-28T12:22:29;86914.28;;;22.71;63.56
43838;BME280;65998;46.256;7.534;2023-07-28T12:24:55;86908.13;;;22.68;63.83
43838;BME280;65998;46.256;7.534;2023-07-28T12:27:21;86904.53;;;22.70;63.06
43838;BME280;65998;46.256;7.534;2023-07-28T12:29:47;86914.66;;;23.03;64.22
43838;BME280;65998;46.256;7.534;2023-07-28T12:32:13;86906.84;;;22.92;61.00
43838;BME280;65998;46.256;7.534;2023-07-28T12:34:39;86910.09;;;22.97;61.69
43838;BME280;65998;46.256;7.534;2023-07-28T12:37:05;86912.88;;;23.22;62.03
43838;BME280;65998;46.256;7.534;2023-07-28T12:39:31;86913.97;;;23.28;62.72
43838;BME280;65998;46.256;7.534;2023-07-28T12:41:57;86914.41;;;23.45;59.93
43838;BME280;65998;46.256;7.534;2023-07-28T12:44:23;86905.56;;;23.28;60.97
43838;BME280;65998;46.256;7.534;2023-07-28T12:46:49;86915.44;;;23.88;60.71
43838;BME280;65998;46.256;7.534;2023-07-28T12:49:15;86909.84;;;24.11;59.34
43838;BME280;65998;46.256;7.534;2023-07-28T12:51:41;86902.53;;;24.16;57.33
43838;BME280;65998;46.256;7.534;2023-07-28T12:54:07;86899.38;;;24.46;57.92
43838;BME280;65998;46.256;7.534;2023-07-28T12:56:33;86898.09;;;24.32;54.95
43838;BME280;65998;46.256;7.534;2023-07-28T12:58:59;86906.19;;;24.26;59.77
43838;BME280;65998;46.256;7.534;2023-07-28T13:01:25;86899.06;;;23.80;54.63
43838;BME280;65998;46.256;7.534;2023-07-28T13:03:50;86896.91;;;24.16;57.63
43838;BME280;65998;46.256;7.534;2023-07-28T13:06:16;86895.22;;;24.22;56.96
43838;BME280;65998;46.256;7.534;2023-07-28T13:08:42;86894.06;;;24.06;58.43
43838;BME280;65998;46.256;7.534;2023-07-28T13:11:08;86897.59;;;24.17;57.71